Acton, Maine
Current Conditions -  °F | °C
As of 10:15 AM on Monday 24 Nov 2014 (Local Time) from KSFM Reporting Station
Overcast Overcast  
Wind Chill: 55°   Ceiling: 600
Heat Index: 55°   Visibility: 3mi
Dew Point: 52°   Wind: 21mph
Humidity: 88%   Direction: 170°S
Pressure: 29.72"   Gusts: 36mph
Location:  43.53°N, 70.91°W
Report Text: KSFM 241515Z AUTO 17018G31KT 140V200 3SM OVC006 13/11 A2972 RMK AO1 P0001
Loading
Personal Weather Stations






























Interactive Weather Map New forecast layout! Learn more

10-Day Weather Forecast

Advertisements
Track Severe Weather on mobile